sensor_id;sensor_type;location;lat;lon;timestamp;P1;durP1;ratioP1;P2;durP2;ratioP2
20970;SDS011;10644;48.834;10.088;2023-02-15T00:01:12;40.20;;;18.80;;
20970;SDS011;10644;48.834;10.088;2023-02-15T00:03:39;39.97;;;18.40;;
20970;SDS011;10644;48.834;10.088;2023-02-15T00:08:35;35.50;;;18.58;;
20970;SDS011;10644;48.834;10.088;2023-02-15T00:11:07;37.45;;;18.80;;
20970;SDS011;10644;48.834;10.088;2023-02-15T00:13:37;34.97;;;17.38;;
20970;SDS011;10644;48.834;10.088;2023-02-15T00:16:10;38.65;;;17.33;;
20970;SDS011;10644;48.834;10.088;2023-02-15T00:18:40;38.78;;;19.02;;
20970;SDS011;10644;48.834;10.088;2023-02-15T00:23:57;48.83;;;21.80;;
20970;SDS011;10644;48.834;10.088;2023-02-15T00:28:53;34.83;;;18.45;;
20970;SDS011;10644;48.834;10.088;2023-02-15T00:31:21;31.73;;;16.63;;
20970;SDS011;10644;48.834;10.088;2023-02-15T00:33:46;30.85;;;15.57;;
20970;SDS011;10644;48.834;10.088;2023-02-15T00:36:12;30.73;;;16.33;;
20970;SDS011;10644;48.834;10.088;2023-02-15T00:38:39;35.60;;;16.53;;
20970;SDS011;10644;48.834;10.088;2023-02-15T00:41:05;28.73;;;15.80;;
20970;SDS011;10644;48.834;10.088;2023-02-15T00:43:44;33.75;;;16.98;;
20970;SDS011;10644;48.834;10.088;2023-02-15T00:48:51;31.70;;;15.82;;
20970;SDS011;10644;48.834;10.088;2023-02-15T00:51:18;31.00;;;15.60;;
20970;SDS011;10644;48.834;10.088;2023-02-15T00:53:53;43.28;;;17.85;;
20970;SDS011;10644;48.834;10.088;2023-02-15T00:56:19;30.45;;;14.57;;
20970;SDS011;10644;48.834;10.088;2023-02-15T00:58:44;34.10;;;16.53;;
20970;SDS011;10644;48.834;10.088;2023-02-15T01:04:21;35.90;;;15.88;;
20970;SDS011;10644;48.834;10.088;2023-02-15T01:09:21;30.08;;;14.82;;
20970;SDS011;10644;48.834;10.088;2023-02-15T01:20:26;26.25;;;13.77;;
20970;SDS011;10644;48.834;10.088;2023-02-15T01:22:57;31.42;;;14.93;;
20970;SDS011;10644;48.834;10.088;2023-02-15T01:25:23;35.10;;;16.58;;
20970;SDS011;10644;48.834;10.088;2023-02-15T01:34:05;30.15;;;15.15;;
20970;SDS011;10644;48.834;10.088;2023-02-15T01:39:20;30.83;;;15.85;;
20970;SDS011;10644;48.834;10.088;2023-02-15T01:41:55;28.52;;;14.07;;
20970;SDS011;10644;48.834;10.088;2023-02-15T01:50:36;24.88;;;12.82;;
20970;SDS011;10644;48.834;10.088;2023-02-15T01:56:16;24.83;;;13.95;;
20970;SDS011;10644;48.834;10.088;2023-02-15T01:58:46;28.48;;;13.75;;
20970;SDS011;10644;48.834;10.088;2023-02-15T02:01:12;28.48;;;14.30;;
20970;SDS011;10644;48.834;10.088;2023-02-15T02:12:21;29.75;;;16.95;;
20970;SDS011;10644;48.834;10.088;2023-02-15T02:14:55;29.98;;;15.13;;
20970;SDS011;10644;48.834;10.088;2023-02-15T02:33:12;25.52;;;13.80;;
20970;SDS011;10644;48.834;10.088;2023-02-15T02:35:48;34.05;;;14.02;;
20970;SDS011;10644;48.834;10.088;2023-02-15T02:46:50;39.80;;;19.50;;
20970;SDS011;10644;48.834;10.088;2023-02-15T02:55:16;30.05;;;15.55;;
20970;SDS011;10644;48.834;10.088;2023-02-15T02:57:51;33.42;;;14.27;;
20970;SDS011;10644;48.834;10.088;2023-02-15T03:00:21;30.55;;;15.18;;
20970;SDS011;10644;48.834;10.088;2023-02-15T03:03:01;30.27;;;15.73;;
20970;SDS011;10644;48.834;10.088;2023-02-15T03:05:34;30.80;;;14.63;;
20970;SDS011;10644;48.834;10.088;2023-02-15T03:08:15;25.88;;;12.75;;
20970;SDS011;10644;48.834;10.088;2023-02-15T03:10:47;30.00;;;15.63;;
20970;SDS011;10644;48.834;10.088;2023-02-15T03:13:20;26.10;;;13.70;;
20970;SDS011;10644;48.834;10.088;2023-02-15T03:15:56;28.80;;;14.13;;
20970;SDS011;10644;48.834;10.088;2023-02-15T03:18:50;30.98;;;16.25;;
20970;SDS011;10644;48.834;10.088;2023-02-15T03:24:30;29.65;;;14.60;;
20970;SDS011;10644;48.834;10.088;2023-02-15T03:30:20;28.65;;;12.75;;
20970;SDS011;10644;48.834;10.088;2023-02-15T03:32:48;23.65;;;13.32;;
20970;SDS011;10644;48.834;10.088;2023-02-15T03:35:21;34.53;;;14.27;;
20970;SDS011;10644;48.834;10.088;2023-02-15T03:38:02;28.98;;;13.38;;
20970;SDS011;10644;48.834;10.088;2023-02-15T03:46:42;26.52;;;13.32;;
20970;SDS011;10644;48.834;10.088;2023-02-15T03:49:17;24.85;;;12.70;;
20970;SDS011;10644;48.834;10.088;2023-02-15T03:51:54;30.40;;;14.27;;
20970;SDS011;10644;48.834;10.088;2023-02-15T03:54:29;26.85;;;13.35;;
20970;SDS011;10644;48.834;10.088;2023-02-15T03:57:29;38.35;;;14.32;;
20970;SDS011;10644;48.834;10.088;2023-02-15T04:00:14;31.05;;;14.75;;
20970;SDS011;10644;48.834;10.088;2023-02-15T04:05:44;29.70;;;13.50;;
20970;SDS011;10644;48.834;10.088;2023-02-15T04:08:15;34.83;;;14.60;;
20970;SDS011;10644;48.834;10.088;2023-02-15T04:10:41;30.00;;;13.40;;
20970;SDS011;10644;48.834;10.088;2023-02-15T04:13:31;24.88;;;12.90;;
20970;SDS011;10644;48.834;10.088;2023-02-15T04:16:03;25.67;;;13.40;;
20970;SDS011;10644;48.834;10.088;2023-02-15T04:18:37;27.52;;;13.77;;
20970;SDS011;10644;48.834;10.088;2023-02-15T04:21:30;38.63;;;14.88;;
20970;SDS011;10644;48.834;10.088;2023-02-15T04:24:21;34.65;;;15.38;;
20970;SDS011;10644;48.834;10.088;2023-02-15T04:27:05;49.28;;;16.25;;
20970;SDS011;10644;48.834;10.088;2023-02-15T04:29:32;37.87;;;14.40;;
20970;SDS011;10644;48.834;10.088;2023-02-15T04:32:00;39.10;;;15.05;;
20970;SDS011;10644;48.834;10.088;2023-02-15T04:34:27;38.15;;;14.80;;
20970;SDS011;10644;48.834;10.088;2023-02-15T04:36:54;30.50;;;14.77;;
20970;SDS011;10644;48.834;10.088;2023-02-15T04:41:50;32.08;;;13.57;;
20970;SDS011;10644;48.834;10.088;2023-02-15T04:44:28;33.30;;;13.73;;
20970;SDS011;10644;48.834;10.088;2023-02-15T04:46:58;32.47;;;13.88;;
20970;SDS011;10644;48.834;10.088;2023-02-15T04:49:26;32.97;;;14.13;;
20970;SDS011;10644;48.834;10.088;2023-02-15T04:51:58;36.92;;;13.50;;
20970;SDS011;10644;48.834;10.088;2023-02-15T04:54:23;27.40;;;12.40;;
20970;SDS011;10644;48.834;10.088;2023-02-15T04:56:49;28.90;;;12.37;;
20970;SDS011;10644;48.834;10.088;2023-02-15T04:59:29;28.27;;;12.40;;
20970;SDS011;10644;48.834;10.088;2023-02-15T05:01:56;25.80;;;13.65;;
20970;SDS011;10644;48.834;10.088;2023-02-15T05:07:11;31.77;;;13.60;;
20970;SDS011;10644;48.834;10.088;2023-02-15T05:09:44;28.08;;;13.27;;
20970;SDS011;10644;48.834;10.088;2023-02-15T05:12:12;27.42;;;12.63;;
20970;SDS011;10644;48.834;10.088;2023-02-15T05:17:10;37.35;;;13.95;;
20970;SDS011;10644;48.834;10.088;2023-02-15T05:22:06;35.78;;;14.50;;
20970;SDS011;10644;48.834;10.088;2023-02-15T05:24:47;31.48;;;13.20;;
20970;SDS011;10644;48.834;10.088;2023-02-15T05:27:36;26.77;;;13.40;;
20970;SDS011;10644;48.834;10.088;2023-02-15T05:30:28;26.80;;;12.52;;
20970;SDS011;10644;48.834;10.088;2023-02-15T05:32:53;29.20;;;12.70;;
20970;SDS011;10644;48.834;10.088;2023-02-15T05:35:19;26.80;;;13.00;;
20970;SDS011;10644;48.834;10.088;2023-02-15T05:37:45;25.27;;;12.77;;
20970;SDS011;10644;48.834;10.088;2023-02-15T05:40:11;31.80;;;13.98;;
20970;SDS011;10644;48.834;10.088;2023-02-15T05:42:37;41.53;;;19.90;;
20970;SDS011;10644;48.834;10.088;2023-02-15T05:45:09;40.35;;;16.63;;
20970;SDS011;10644;48.834;10.088;2023-02-15T05:47:35;31.70;;;14.45;;
20970;SDS011;10644;48.834;10.088;2023-02-15T05:50:09;34.65;;;15.18;;
20970;SDS011;10644;48.834;10.088;2023-02-15T05:52:42;30.08;;;14.48;;
20970;SDS011;10644;48.834;10.088;2023-02-15T05:55:18;32.70;;;14.80;;
20970;SDS011;10644;48.834;10.088;2023-02-15T06:00:41;32.60;;;14.43;;
20970;SDS011;10644;48.834;10.088;2023-02-15T06:05:37;39.20;;;16.25;;
20970;SDS011;10644;48.834;10.088;2023-02-15T06:08:02;35.15;;;16.48;;
20970;SDS011;10644;48.834;10.088;2023-02-15T06:10:29;42.03;;;17.63;;
20970;SDS011;10644;48.834;10.088;2023-02-15T06:12:56;32.15;;;15.02;;
20970;SDS011;10644;48.834;10.088;2023-02-15T06:15:26;32.97;;;16.30;;
20970;SDS011;10644;48.834;10.088;2023-02-15T06:17:51;29.83;;;15.50;;
20970;SDS011;10644;48.834;10.088;2023-02-15T06:20:18;57.87;;;18.03;;
20970;SDS011;10644;48.834;10.088;2023-02-15T06:22:59;41.25;;;16.95;;
20970;SDS011;10644;48.834;10.088;2023-02-15T06:25:27;38.55;;;16.60;;
20970;SDS011;10644;48.834;10.088;2023-02-15T06:28:06;36.40;;;16.85;;
20970;SDS011;10644;48.834;10.088;2023-02-15T06:33:40;32.10;;;14.90;;
20970;SDS011;10644;48.834;10.088;2023-02-15T06:36:10;32.00;;;13.93;;
20970;SDS011;10644;48.834;10.088;2023-02-15T06:38:46;28.35;;;14.32;;
20970;SDS011;10644;48.834;10.088;2023-02-15T06:41:12;33.35;;;15.50;;
20970;SDS011;10644;48.834;10.088;2023-02-15T06:43:54;39.25;;;16.10;;
20970;SDS011;10644;48.834;10.088;2023-02-15T06:46:20;28.27;;;12.55;;
20970;SDS011;10644;48.834;10.088;2023-02-15T06:48:50;42.92;;;15.75;;
20970;SDS011;10644;48.834;10.088;2023-02-15T06:51:17;33.33;;;14.35;;
20970;SDS011;10644;48.834;10.088;2023-02-15T06:54:01;34.55;;;14.88;;
20970;SDS011;10644;48.834;10.088;2023-02-15T06:56:26;40.10;;;15.65;;
20970;SDS011;10644;48.834;10.088;2023-02-15T07:01:22;42.67;;;15.70;;
20970;SDS011;10644;48.834;10.088;2023-02-15T07:03:48;32.10;;;15.13;;
20970;SDS011;10644;48.834;10.088;2023-02-15T07:06:13;29.93;;;15.30;;
20970;SDS011;10644;48.834;10.088;2023-02-15T07:08:39;42.40;;;14.87;;
20970;SDS011;10644;48.834;10.088;2023-02-15T07:11:07;43.95;;;23.83;;
20970;SDS011;10644;48.834;10.088;2023-02-15T07:13:57;38.83;;;13.82;;
20970;SDS011;10644;48.834;10.088;2023-02-15T07:16:23;40.72;;;14.82;;
20970;SDS011;10644;48.834;10.088;2023-02-15T07:18:58;29.02;;;14.50;;
20970;SDS011;10644;48.834;10.088;2023-02-15T07:24:23;38.75;;;13.90;;
20970;SDS011;10644;48.834;10.088;2023-02-15T07:26:50;30.52;;;15.40;;
20970;SDS011;10644;48.834;10.088;2023-02-15T07:29:32;37.50;;;15.05;;
20970;SDS011;10644;48.834;10.088;2023-02-15T07:31:58;35.45;;;14.40;;
20970;SDS011;10644;48.834;10.088;2023-02-15T07:34:32;28.60;;;14.15;;
20970;SDS011;10644;48.834;10.088;2023-02-15T07:36:58;57.45;;;18.63;;
20970;SDS011;10644;48.834;10.088;2023-02-15T07:39:28;39.67;;;17.10;;
20970;SDS011;10644;48.834;10.088;2023-02-15T07:41:55;39.50;;;17.15;;
20970;SDS011;10644;48.834;10.088;2023-02-15T07:44:22;44.50;;;17.38;;
20970;SDS011;10644;48.834;10.088;2023-02-15T07:47:00;42.53;;;17.13;;
20970;SDS011;10644;48.834;10.088;2023-02-15T07:49:25;36.42;;;15.60;;
20970;SDS011;10644;48.834;10.088;2023-02-15T07:51:55;31.37;;;16.80;;
20970;SDS011;10644;48.834;10.088;2023-02-15T07:54:22;38.20;;;17.65;;
20970;SDS011;10644;48.834;10.088;2023-02-15T07:56:51;39.55;;;14.77;;
20970;SDS011;10644;48.834;10.088;2023-02-15T07:59:28;45.15;;;14.82;;
20970;SDS011;10644;48.834;10.088;2023-02-15T08:01:54;41.53;;;14.68;;
20970;SDS011;10644;48.834;10.088;2023-02-15T08:04:23;27.63;;;11.80;;
20970;SDS011;10644;48.834;10.088;2023-02-15T08:06:51;28.92;;;11.77;;
20970;SDS011;10644;48.834;10.088;2023-02-15T08:09:19;33.28;;;13.43;;
20970;SDS011;10644;48.834;10.088;2023-02-15T08:11:57;38.15;;;14.60;;
20970;SDS011;10644;48.834;10.088;2023-02-15T08:14:22;33.22;;;12.75;;
20970;SDS011;10644;48.834;10.088;2023-02-15T08:16:52;29.23;;;13.07;;
20970;SDS011;10644;48.834;10.088;2023-02-15T08:19:25;29.60;;;13.80;;
20970;SDS011;10644;48.834;10.088;2023-02-15T08:22:04;50.30;;;14.32;;
20970;SDS011;10644;48.834;10.088;2023-02-15T08:24:38;37.30;;;14.27;;
20970;SDS011;10644;48.834;10.088;2023-02-15T08:27:08;42.22;;;16.50;;
20970;SDS011;10644;48.834;10.088;2023-02-15T08:29:43;33.45;;;15.00;;
20970;SDS011;10644;48.834;10.088;2023-02-15T08:32:14;32.30;;;14.85;;
20970;SDS011;10644;48.834;10.088;2023-02-15T08:34:53;39.50;;;16.37;;
20970;SDS011;10644;48.834;10.088;2023-02-15T08:37:32;27.08;;;14.13;;
20970;SDS011;10644;48.834;10.088;2023-02-15T08:39:58;25.23;;;14.57;;
20970;SDS011;10644;48.834;10.088;2023-02-15T08:42:27;25.70;;;13.00;;
20970;SDS011;10644;48.834;10.088;2023-02-15T08:44:53;27.58;;;15.60;;
20970;SDS011;10644;48.834;10.088;2023-02-15T08:47:19;23.37;;;12.20;;
20970;SDS011;10644;48.834;10.088;2023-02-15T08:49:48;21.83;;;12.65;;
20970;SDS011;10644;48.834;10.088;2023-02-15T08:52:14;24.95;;;14.65;;
20970;SDS011;10644;48.834;10.088;2023-02-15T08:54:41;22.55;;;13.50;;
20970;SDS011;10644;48.834;10.088;2023-02-15T08:57:14;24.77;;;13.30;;
20970;SDS011;10644;48.834;10.088;2023-02-15T08:59:41;22.75;;;13.50;;
20970;SDS011;10644;48.834;10.088;2023-02-15T09:02:09;21.77;;;12.63;;
20970;SDS011;10644;48.834;10.088;2023-02-15T09:04:35;28.30;;;14.02;;
20970;SDS011;10644;48.834;10.088;2023-02-15T09:10:07;30.42;;;12.50;;
20970;SDS011;10644;48.834;10.088;2023-02-15T09:12:33;22.93;;;14.37;;
20970;SDS011;10644;48.834;10.088;2023-02-15T09:15:06;19.83;;;13.07;;
20970;SDS011;10644;48.834;10.088;2023-02-15T09:17:50;20.65;;;11.77;;
20970;SDS011;10644;48.834;10.088;2023-02-15T09:20:16;21.38;;;12.65;;
20970;SDS011;10644;48.834;10.088;2023-02-15T09:22:44;19.30;;;11.82;;
20970;SDS011;10644;48.834;10.088;2023-02-15T09:25:23;21.75;;;13.02;;
20970;SDS011;10644;48.834;10.088;2023-02-15T09:28:01;17.50;;;10.25;;
20970;SDS011;10644;48.834;10.088;2023-02-15T09:33:05;22.20;;;13.60;;
20970;SDS011;10644;48.834;10.088;2023-02-15T09:35:34;24.65;;;13.80;;
20970;SDS011;10644;48.834;10.088;2023-02-15T09:38:02;23.42;;;14.00;;
20970;SDS011;10644;48.834;10.088;2023-02-15T09:46:27;22.33;;;13.95;;
20970;SDS011;10644;48.834;10.088;2023-02-15T09:49:15;20.45;;;12.55;;
20970;SDS011;10644;48.834;10.088;2023-02-15T10:18:43;27.77;;;14.00;;
20970;SDS011;10644;48.834;10.088;2023-02-15T10:27:48;23.23;;;13.50;;
20970;SDS011;10644;48.834;10.088;2023-02-15T10:45:49;22.77;;;13.30;;
20970;SDS011;10644;48.834;10.088;2023-02-15T10:48:30;21.33;;;13.10;;
20970;SDS011;10644;48.834;10.088;2023-02-15T10:51:08;20.37;;;12.50;;
20970;SDS011;10644;48.834;10.088;2023-02-15T11:09:00;20.87;;;12.73;;
20970;SDS011;10644;48.834;10.088;2023-02-15T11:11:30;25.50;;;13.30;;
20970;SDS011;10644;48.834;10.088;2023-02-15T11:17:11;19.57;;;12.23;;
20970;SDS011;10644;48.834;10.088;2023-02-15T11:22:47;25.30;;;12.17;;
20970;SDS011;10644;48.834;10.088;2023-02-15T11:25:23;23.10;;;12.40;;
20970;SDS011;10644;48.834;10.088;2023-02-15T11:30:38;19.50;;;12.93;;
20970;SDS011;10644;48.834;10.088;2023-02-15T11:33:14;18.93;;;10.80;;
20970;SDS011;10644;48.834;10.088;2023-02-15T11:38:56;23.90;;;13.80;;
20970;SDS011;10644;48.834;10.088;2023-02-15T11:41:34;20.33;;;12.77;;
20970;SDS011;10644;48.834;10.088;2023-02-15T11:44:19;22.83;;;12.47;;
20970;SDS011;10644;48.834;10.088;2023-02-15T11:46:50;17.07;;;11.93;;
20970;SDS011;10644;48.834;10.088;2023-02-15T11:49:32;23.33;;;12.90;;
20970;SDS011;10644;48.834;10.088;2023-02-15T11:52:00;21.73;;;12.73;;
20970;SDS011;10644;48.834;10.088;2023-02-15T11:54:33;26.20;;;17.23;;
20970;SDS011;10644;48.834;10.088;2023-02-15T12:06:26;26.93;;;13.90;;
20970;SDS011;10644;48.834;10.088;2023-02-15T12:15:04;25.50;;;11.07;;
20970;SDS011;10644;48.834;10.088;2023-02-15T12:17:34;20.75;;;12.23;;
20970;SDS011;10644;48.834;10.088;2023-02-15T12:20:02;24.97;;;12.80;;
20970;SDS011;10644;48.834;10.088;2023-02-15T12:22:34;25.63;;;13.03;;
20970;SDS011;10644;48.834;10.088;2023-02-15T12:27:52;22.10;;;13.50;;
20970;SDS011;10644;48.834;10.088;2023-02-15T12:36:18;20.43;;;13.20;;
20970;SDS011;10644;48.834;10.088;2023-02-15T12:41:43;28.23;;;16.50;;
20970;SDS011;10644;48.834;10.088;2023-02-15T12:44:26;22.13;;;14.30;;
20970;SDS011;10644;48.834;10.088;2023-02-15T12:47:05;25.30;;;15.37;;
20970;SDS011;10644;48.834;10.088;2023-02-15T12:49:42;28.10;;;15.47;;
20970;SDS011;10644;48.834;10.088;2023-02-15T12:52:25;25.23;;;15.60;;
20970;SDS011;10644;48.834;10.088;2023-02-15T12:54:51;24.90;;;15.10;;
20970;SDS011;10644;48.834;10.088;2023-02-15T12:57:33;24.10;;;16.10;;
20970;SDS011;10644;48.834;10.088;2023-02-15T13:02:36;30.07;;;18.70;;
20970;SDS011;10644;48.834;10.088;2023-02-15T13:05:51;31.23;;;16.23;;
20970;SDS011;10644;48.834;10.088;2023-02-15T13:14:14;21.20;;;14.00;;
20970;SDS011;10644;48.834;10.088;2023-02-15T13:17:00;34.50;;;21.60;;
20970;SDS011;10644;48.834;10.088;2023-02-15T13:19:46;26.20;;;15.53;;
20970;SDS011;10644;48.834;10.088;2023-02-15T13:22:20;33.50;;;17.77;;
20970;SDS011;10644;48.834;10.088;2023-02-15T13:24:56;27.90;;;16.90;;
20970;SDS011;10644;48.834;10.088;2023-02-15T13:27:28;28.63;;;18.03;;
20970;SDS011;10644;48.834;10.088;2023-02-15T13:30:02;25.83;;;15.47;;
20970;SDS011;10644;48.834;10.088;2023-02-15T13:32:37;33.60;;;15.83;;
20970;SDS011;10644;48.834;10.088;2023-02-15T13:35:16;42.60;;;25.17;;
20970;SDS011;10644;48.834;10.088;2023-02-15T13:40:57;39.23;;;15.73;;
20970;SDS011;10644;48.834;10.088;2023-02-15T13:46:23;28.70;;;14.67;;
20970;SDS011;10644;48.834;10.088;2023-02-15T13:55:27;22.90;;;14.63;;
20970;SDS011;10644;48.834;10.088;2023-02-15T14:08:36;26.17;;;14.77;;
20970;SDS011;10644;48.834;10.088;2023-02-15T14:17:19;27.80;;;14.73;;
20970;SDS011;10644;48.834;10.088;2023-02-15T14:20:00;25.33;;;13.93;;
20970;SDS011;10644;48.834;10.088;2023-02-15T14:22:36;25.57;;;13.13;;
20970;SDS011;10644;48.834;10.088;2023-02-15T14:30:20;29.43;;;14.70;;
20970;SDS011;10644;48.834;10.088;2023-02-15T14:35:59;23.50;;;13.00;;
20970;SDS011;10644;48.834;10.088;2023-02-15T14:38:42;23.33;;;12.40;;
20970;SDS011;10644;48.834;10.088;2023-02-15T14:42:04;39.77;;;13.93;;
20970;SDS011;10644;48.834;10.088;2023-02-15T14:44:54;22.60;;;13.00;;
20970;SDS011;10644;48.834;10.088;2023-02-15T14:47:42;28.43;;;12.83;;
20970;SDS011;10644;48.834;10.088;2023-02-15T15:22:31;23.07;;;16.70;;
20970;SDS011;10644;48.834;10.088;2023-02-15T15:24:58;37.37;;;13.70;;
20970;SDS011;10644;48.834;10.088;2023-02-15T15:54:04;24.63;;;15.43;;
20970;SDS011;10644;48.834;10.088;2023-02-15T15:56:47;36.03;;;19.80;;
20970;SDS011;10644;48.834;10.088;2023-02-15T15:59:25;29.53;;;18.77;;
20970;SDS011;10644;48.834;10.088;2023-02-15T16:05:05;27.63;;;18.70;;
20970;SDS011;10644;48.834;10.088;2023-02-15T16:07:33;25.73;;;18.13;;
20970;SDS011;10644;48.834;10.088;2023-02-15T16:10:01;28.73;;;16.67;;
20970;SDS011;10644;48.834;10.088;2023-02-15T16:12:37;32.10;;;16.90;;
20970;SDS011;10644;48.834;10.088;2023-02-15T16:15:20;52.23;;;23.20;;
20970;SDS011;10644;48.834;10.088;2023-02-15T16:17:55;44.07;;;22.77;;
20970;SDS011;10644;48.834;10.088;2023-02-15T16:29:12;44.57;;;23.43;;
20970;SDS011;10644;48.834;10.088;2023-02-15T16:31:39;46.07;;;23.13;;
20970;SDS011;10644;48.834;10.088;2023-02-15T16:34:17;47.60;;;24.23;;
20970;SDS011;10644;48.834;10.088;2023-02-15T16:36:43;47.70;;;20.17;;
20970;SDS011;10644;48.834;10.088;2023-02-15T16:39:19;56.77;;;20.30;;
20970;SDS011;10644;48.834;10.088;2023-02-15T16:41:45;44.47;;;18.93;;
20970;SDS011;10644;48.834;10.088;2023-02-15T16:44:15;41.30;;;20.15;;
20970;SDS011;10644;48.834;10.088;2023-02-15T16:46:46;49.47;;;19.47;;
20970;SDS011;10644;48.834;10.088;2023-02-15T16:52:15;42.37;;;22.20;;
20970;SDS011;10644;48.834;10.088;2023-02-15T16:54:48;46.63;;;20.03;;
20970;SDS011;10644;48.834;10.088;2023-02-15T17:00:22;47.90;;;20.53;;
20970;SDS011;10644;48.834;10.088;2023-02-15T17:05:50;33.80;;;17.80;;
20970;SDS011;10644;48.834;10.088;2023-02-15T17:08:25;35.90;;;18.73;;
20970;SDS011;10644;48.834;10.088;2023-02-15T17:20:13;30.43;;;17.13;;
20970;SDS011;10644;48.834;10.088;2023-02-15T17:25:47;48.30;;;24.27;;
20970;SDS011;10644;48.834;10.088;2023-02-15T17:33:51;36.60;;;19.83;;
20970;SDS011;10644;48.834;10.088;2023-02-15T17:36:23;41.30;;;21.17;;
20970;SDS011;10644;48.834;10.088;2023-02-15T17:39:00;38.30;;;18.17;;
20970;SDS011;10644;48.834;10.088;2023-02-15T17:41:36;53.00;;;21.97;;
20970;SDS011;10644;48.834;10.088;2023-02-15T17:44:05;39.90;;;21.93;;
20970;SDS011;10644;48.834;10.088;2023-02-15T17:46:36;34.35;;;19.60;;
20970;SDS011;10644;48.834;10.088;2023-02-15T17:49:05;35.87;;;20.23;;
20970;SDS011;10644;48.834;10.088;2023-02-15T17:51:35;37.77;;;20.07;;
20970;SDS011;10644;48.834;10.088;2023-02-15T17:54:01;38.57;;;20.03;;
20970;SDS011;10644;48.834;10.088;2023-02-15T17:56:53;34.67;;;21.17;;
20970;SDS011;10644;48.834;10.088;2023-02-15T17:59:26;37.50;;;20.30;;
20970;SDS011;10644;48.834;10.088;2023-02-15T18:02:08;39.47;;;20.63;;
20970;SDS011;10644;48.834;10.088;2023-02-15T18:05:11;36.50;;;18.63;;
20970;SDS011;10644;48.834;10.088;2023-02-15T18:14:19;47.07;;;20.37;;
20970;SDS011;10644;48.834;10.088;2023-02-15T18:16:56;40.10;;;18.90;;
20970;SDS011;10644;48.834;10.088;2023-02-15T18:22:11;53.78;;;26.02;;
20970;SDS011;10644;48.834;10.088;2023-02-15T18:24:40;45.95;;;21.35;;
20970;SDS011;10644;48.834;10.088;2023-02-15T18:29:38;52.28;;;26.02;;
20970;SDS011;10644;48.834;10.088;2023-02-15T18:38:26;38.10;;;21.52;;
20970;SDS011;10644;48.834;10.088;2023-02-15T18:40:57;39.23;;;22.07;;
20970;SDS011;10644;48.834;10.088;2023-02-15T18:48:35;48.35;;;22.65;;
20970;SDS011;10644;48.834;10.088;2023-02-15T18:51:00;35.90;;;19.77;;
20970;SDS011;10644;48.834;10.088;2023-02-15T18:53:34;37.50;;;19.90;;
20970;SDS011;10644;48.834;10.088;2023-02-15T18:55:59;52.75;;;22.65;;
20970;SDS011;10644;48.834;10.088;2023-02-15T18:58:33;54.53;;;24.23;;
20970;SDS011;10644;48.834;10.088;2023-02-15T19:07:01;46.50;;;23.05;;
20970;SDS011;10644;48.834;10.088;2023-02-15T19:12:37;46.08;;;21.67;;
20970;SDS011;10644;48.834;10.088;2023-02-15T19:17:46;49.10;;;25.35;;
20970;SDS011;10644;48.834;10.088;2023-02-15T19:29:23;68.95;;;28.50;;
20970;SDS011;10644;48.834;10.088;2023-02-15T19:31:51;67.45;;;28.30;;
20970;SDS011;10644;48.834;10.088;2023-02-15T19:34:32;89.37;;;33.00;;
20970;SDS011;10644;48.834;10.088;2023-02-15T19:36:59;68.55;;;28.95;;
20970;SDS011;10644;48.834;10.088;2023-02-15T19:39:38;61.47;;;28.60;;
20970;SDS011;10644;48.834;10.088;2023-02-15T19:44:52;59.65;;;27.20;;
20970;SDS011;10644;48.834;10.088;2023-02-15T19:50:32;68.85;;;27.95;;
20970;SDS011;10644;48.834;10.088;2023-02-15T20:02:11;50.10;;;23.92;;
20970;SDS011;10644;48.834;10.088;2023-02-15T20:07:40;45.83;;;22.33;;
20970;SDS011;10644;48.834;10.088;2023-02-15T20:21:43;59.03;;;26.48;;
20970;SDS011;10644;48.834;10.088;2023-02-15T20:33:09;47.10;;;22.55;;
20970;SDS011;10644;48.834;10.088;2023-02-15T20:41:37;58.08;;;25.50;;
20970;SDS011;10644;48.834;10.088;2023-02-15T20:44:22;52.22;;;26.40;;
20970;SDS011;10644;48.834;10.088;2023-02-15T20:46:56;54.00;;;27.65;;
20970;SDS011;10644;48.834;10.088;2023-02-15T20:52:22;52.55;;;26.48;;
20970;SDS011;10644;48.834;10.088;2023-02-15T20:54:56;45.43;;;24.87;;
20970;SDS011;10644;48.834;10.088;2023-02-15T20:57:34;56.75;;;30.20;;
20970;SDS011;10644;48.834;10.088;2023-02-15T21:03:06;67.05;;;33.25;;
20970;SDS011;10644;48.834;10.088;2023-02-15T21:05:40;53.83;;;28.42;;
20970;SDS011;10644;48.834;10.088;2023-02-15T21:08:17;53.90;;;27.17;;
20970;SDS011;10644;48.834;10.088;2023-02-15T21:10:54;59.63;;;29.88;;
20970;SDS011;10644;48.834;10.088;2023-02-15T21:13:30;65.07;;;30.40;;
20970;SDS011;10644;48.834;10.088;2023-02-15T21:16:12;50.83;;;27.33;;
20970;SDS011;10644;48.834;10.088;2023-02-15T21:18:42;49.40;;;26.42;;
20970;SDS011;10644;48.834;10.088;2023-02-15T21:21:20;54.80;;;26.83;;
20970;SDS011;10644;48.834;10.088;2023-02-15T21:23:51;52.95;;;25.55;;
20970;SDS011;10644;48.834;10.088;2023-02-15T21:29:23;52.88;;;26.75;;
20970;SDS011;10644;48.834;10.088;2023-02-15T21:31:58;48.88;;;24.60;;
20970;SDS011;10644;48.834;10.088;2023-02-15T21:34:30;47.00;;;24.25;;
20970;SDS011;10644;48.834;10.088;2023-02-15T21:36:57;49.88;;;25.38;;
20970;SDS011;10644;48.834;10.088;2023-02-15T21:48:21;51.25;;;24.23;;
20970;SDS011;10644;48.834;10.088;2023-02-15T21:50:49;46.63;;;24.65;;
20970;SDS011;10644;48.834;10.088;2023-02-15T21:53:44;62.95;;;26.70;;
20970;SDS011;10644;48.834;10.088;2023-02-15T21:56:12;48.80;;;25.35;;
20970;SDS011;10644;48.834;10.088;2023-02-15T21:58:43;47.65;;;23.92;;
20970;SDS011;10644;48.834;10.088;2023-02-15T22:04:19;39.33;;;22.23;;
20970;SDS011;10644;48.834;10.088;2023-02-15T22:09:27;73.85;;;33.47;;
20970;SDS011;10644;48.834;10.088;2023-02-15T22:11:54;59.88;;;30.50;;
20970;SDS011;10644;48.834;10.088;2023-02-15T22:17:18;96.47;;;42.58;;
20970;SDS011;10644;48.834;10.088;2023-02-15T22:19:46;63.60;;;27.00;;
20970;SDS011;10644;48.834;10.088;2023-02-15T22:22:24;60.85;;;28.55;;
20970;SDS011;10644;48.834;10.088;2023-02-15T22:24:57;69.40;;;32.33;;
20970;SDS011;10644;48.834;10.088;2023-02-15T22:27:26;54.20;;;27.92;;
20970;SDS011;10644;48.834;10.088;2023-02-15T22:29:58;51.42;;;25.88;;
20970;SDS011;10644;48.834;10.088;2023-02-15T22:32:24;59.50;;;28.75;;
20970;SDS011;10644;48.834;10.088;2023-02-15T22:34:57;71.60;;;26.67;;
20970;SDS011;10644;48.834;10.088;2023-02-15T22:40:33;52.03;;;23.80;;
20970;SDS011;10644;48.834;10.088;2023-02-15T22:45:39;64.30;;;30.33;;
20970;SDS011;10644;48.834;10.088;2023-02-15T22:48:07;60.00;;;28.98;;
20970;SDS011;10644;48.834;10.088;2023-02-15T22:50:45;72.20;;;29.95;;
20970;SDS011;10644;48.834;10.088;2023-02-15T22:53:20;65.38;;;30.17;;
20970;SDS011;10644;48.834;10.088;2023-02-15T22:58:22;72.20;;;32.25;;
20970;SDS011;10644;48.834;10.088;2023-02-15T23:04:13;62.92;;;28.90;;
20970;SDS011;10644;48.834;10.088;2023-02-15T23:06:57;54.40;;;28.77;;